Seago Piraeus — OXVD2 — position and weather

sailwx.info

Track history (hours):
 
Tides and Currents Weather Stations Pressure Air Temp Water Temp Dewpoint Dewpoint Depression Visibility Wind Speed Wind Dir Waves Ship Positions

Seago Piraeus

Last reported at 2016-Feb-11 01:33 UTC. Time now 2016-Feb-11 02:23 UTC.
Position N 51°32' E 001°47'.

Length 294 m; draft 12.8 m.

Type: Ship (hazmat cat A). MMSI: 219117000.

Date/timePositionNaut miles runAvg speedWind from/ knotsBaromVisibWave heightAir tempDewpointWater temp
2016-Feb-11 01:33N 51°32' E 001°47'1 1.0
2016-Feb-11 00:33N 51°32' E 001°46'1 0.9
2016-Feb-10 23:34N 51°32' E 001°46'2 2.2
2016-Feb-10 22:34N 51°30' E 001°47'1 1.4
2016-Feb-10 21:34N 51°32' E 001°48'0 0.3
2016-Feb-10 20:34N 51°32' E 001°47'1 1.3
2016-Feb-10 19:33N 51°33' E 001°47'1 1.0
2016-Feb-10 18:33N 51°34' E 001°47'0 0.5
2016-Feb-10 17:33N 51°34' E 001°48'0 0.1
2016-Feb-10 16:34N 51°34' E 001°48'1 0.7
2016-Feb-10 15:34N 51°35' E 001°49'0 0.3
2016-Feb-10 14:33N 51°35' E 001°49'1 1.2
2016-Feb-10 13:33N 51°34' E 001°48'5 4.9
2016-Feb-10 12:33N 51°29' E 001°46'7 6.9
2016-Feb-10 11:33N 51°23' E 001°43'6 6.3
2016-Feb-10 10:33N 51°17' E 001°41'4 4.4
2016-Feb-10 09:34N 51°12' E 001°38'5 5.0
2016-Feb-10 08:33N 51°08' E 001°43'5 5.0
2016-Feb-10 07:34N 51°04' E 001°38'6 6.2
2016-Feb-10 06:34N 50°59' E 001°32'7 7.0
2016-Feb-10 05:33N 50°54' E 001°25'7 6.9
2016-Feb-10 04:33N 50°47' E 001°22'278 9.6
2016-Feb-08 23:33N 48°55' W 005°13'1615.6
2016-Feb-08 22:33N 48°47' W 005°33'44612.7
2016-Feb-07 11:32N 41°59' W 009°47'1110.4
2016-Feb-07 10:29N 41°48' W 009°47'9 9.8
2016-Feb-07 09:32N 41°38' W 009°47'1110.8
2016-Feb-07 08:33N 41°28' W 009°48'1410.0
2016-Feb-07 07:11N 41°14' W 009°48'6 9.3
2016-Feb-07 06:33N 41°08' W 009°48'1010.4
2016-Feb-07 05:32N 40°58' W 009°48'1010.4
2016-Feb-07 04:32N 40°47' W 009°49'1010.3
2016-Feb-07 03:33N 40°37' W 009°50'1010.2
2016-Feb-07 02:32N 40°27' W 009°50'1410.0
2016-Feb-07 01:05N 40°12' W 009°49'510.0
2016-Feb-07 00:32N 40°07' W 009°48'1110.6
2016-Feb-06 23:33N 39°56' W 009°48'1110.6
2016-Feb-06 22:33N 39°46' W 009°49'1111.0
2016-Feb-06 21:32N 39°34' W 009°49'1110.9
2016-Feb-06 20:33N 39°24' W 009°49'1211.6
2016-Feb-06 19:33N 39°12' W 009°49'1312.9
2016-Feb-06 18:33N 38°59' W 009°50'1413.7
2016-Feb-06 17:33N 38°46' W 009°51'1413.4
2016-Feb-06 16:33N 38°32' W 009°47'1414.0
2016-Feb-06 15:33N 38°19' W 009°43'1414.5
2016-Feb-06 14:33N 38°05' W 009°39'1514.4
2016-Feb-06 13:33N 37°50' W 009°36'1414.2
2016-Feb-06 12:32N 37°36' W 009°32'1615.3
2016-Feb-06 11:30N 37°21' W 009°27'1313.9
2016-Feb-06 10:33N 37°08' W 009°23'1414.2
2016-Feb-06 09:33N 36°54' W 009°19'1414.0
2016-Feb-06 08:33N 36°44' W 009°08'1313.3
2016-Feb-06 07:33N 36°40' W 008°52'1514.7
2016-Feb-06 06:33N 36°36' W 008°34'1414.1
2016-Feb-06 05:33N 36°32' W 008°17'9914.1
2016-Feb-05 22:29N 35°59' W 006°21'1414.8
2016-Feb-05 21:31N 35°57' W 006°04'2814.3
2016-Feb-05 19:33N 35°59' W 005°29'1312.6
2016-Feb-05 18:33N 36°02' W 005°14'20314.2
2016-Feb-05 04:17N 37°06' W 001°14'1114.6
2016-Feb-05 03:33N 37°13' W 001°04'1615.1
2016-Feb-05 02:29N 37°24' W 000°49'1314.6
2016-Feb-05 01:34N 37°33' W 000°36'1414.0
2016-Feb-05 00:33N 37°44' W 000°26'1414.4
2016-Feb-04 23:34N 37°57' W 000°17'8411.4
2016-Feb-04 16:10N 39°21' W 000°11'711.4
2016-Feb-04 15:33N 39°26' W 000°18'1 1.5
2016-Feb-04 14:33N 39°26' W 000°19'0 0.0
2016-Feb-04 13:31N 39°26' W 000°19'0 0.0
2016-Feb-04 12:06N 39°26' W 000°19'0 0.0
2016-Feb-04 11:33N 39°26' W 000°19'0 0.0
2016-Feb-04 10:30N 39°26' W 000°19'0 0.0
2016-Feb-04 09:31N 39°26' W 000°19'0 0.0
2016-Feb-04 08:07N 39°26' W 000°19'0 0.0
2016-Feb-04 07:34N 39°26' W 000°19'0 0.0
2016-Feb-04 06:34N 39°26' W 000°19'0 0.0
2016-Feb-04 05:33N 39°26' W 000°19'0 0.0
2016-Feb-04 04:27N 39°26' W 000°19'0 0.0
2016-Feb-04 03:18N 39°26' W 000°19'0 0.0
2016-Feb-04 02:33N 39°26' W 000°19'0 0.0
2016-Feb-04 01:34N 39°26' W 000°19'0 0.1
2016-Feb-04 00:33N 39°26' W 000°19'5 4.9
2016-Feb-03 23:33N 39°25' W 000°13'7514.1
2016-Feb-03 18:15N 39°14' E 001°22'1013.7
2016-Feb-03 17:31N 39°12' E 001°35'1313.3
2016-Feb-03 16:33N 39°10' E 001°51'1414.0
2016-Feb-03 15:33N 39°06' E 002°09'1413.7
2016-Feb-03 14:33N 39°03' E 002°26'1413.5
2016-Feb-03 13:33N 38°60' E 002°43'1413.8
2016-Feb-03 12:34N 38°56' E 002°60'1414.1
2016-Feb-03 11:33N 38°53' E 003°17'1414.4
2016-Feb-03 10:33N 38°50' E 003°35'48313.4
2016-Feb-01 22:33N 36°47' E 013°26'1312.8
2016-Feb-01 21:34N 36°43' E 013°41'1312.9
2016-Feb-01 20:33N 36°39' E 013°57'1313.1
2016-Feb-01 19:33N 36°35' E 014°12'1313.1
2016-Feb-01 18:33N 36°32' E 014°28'1312.6
2016-Feb-01 17:33N 36°29' E 014°43'  
Track history (hours):
 
Tides and Currents Weather Stations Pressure Air Temp Water Temp Dewpoint Dewpoint Depression Visibility Wind Speed Wind Dir Waves Ship Positions

Seago Piraeus

Last reported at 2016-Feb-11 01:33 UTC. Time now 2016-Feb-11 02:23 UTC.
Position N 51°32' E 001°47'.

Length 294 m; draft 12.8 m.

Type: Ship (hazmat cat A). MMSI: 219117000.

Date/timePositionNaut miles runAvg speedWind from/ knotsBaromVisibWave heightAir tempDewpointWater temp
2016-Feb-11 01:33N 51°32' E 001°47'1 1.0
2016-Feb-11 00:33N 51°32' E 001°46'1 0.9
2016-Feb-10 23:34N 51°32' E 001°46'2 2.2
2016-Feb-10 22:34N 51°30' E 001°47'1 1.4
2016-Feb-10 21:34N 51°32' E 001°48'0 0.3
2016-Feb-10 20:34N 51°32' E 001°47'1 1.3
2016-Feb-10 19:33N 51°33' E 001°47'1 1.0
2016-Feb-10 18:33N 51°34' E 001°47'0 0.5
2016-Feb-10 17:33N 51°34' E 001°48'0 0.1
2016-Feb-10 16:34N 51°34' E 001°48'1 0.7
2016-Feb-10 15:34N 51°35' E 001°49'0 0.3
2016-Feb-10 14:33N 51°35' E 001°49'1 1.2
2016-Feb-10 13:33N 51°34' E 001°48'5 4.9
2016-Feb-10 12:33N 51°29' E 001°46'7 6.9
2016-Feb-10 11:33N 51°23' E 001°43'6 6.3
2016-Feb-10 10:33N 51°17' E 001°41'4 4.4
2016-Feb-10 09:34N 51°12' E 001°38'5 5.0
2016-Feb-10 08:33N 51°08' E 001°43'5 5.0
2016-Feb-10 07:34N 51°04' E 001°38'6 6.2
2016-Feb-10 06:34N 50°59' E 001°32'7 7.0
2016-Feb-10 05:33N 50°54' E 001°25'7 6.9
2016-Feb-10 04:33N 50°47' E 001°22'278 9.6
2016-Feb-08 23:33N 48°55' W 005°13'1615.6
2016-Feb-08 22:33N 48°47' W 005°33'44612.7
2016-Feb-07 11:32N 41°59' W 009°47'1110.4
2016-Feb-07 10:29N 41°48' W 009°47'9 9.8
2016-Feb-07 09:32N 41°38' W 009°47'1110.8
2016-Feb-07 08:33N 41°28' W 009°48'1410.0
2016-Feb-07 07:11N 41°14' W 009°48'6 9.3
2016-Feb-07 06:33N 41°08' W 009°48'1010.4
2016-Feb-07 05:32N 40°58' W 009°48'1010.4
2016-Feb-07 04:32N 40°47' W 009°49'1010.3
2016-Feb-07 03:33N 40°37' W 009°50'1010.2
2016-Feb-07 02:32N 40°27' W 009°50'1410.0
2016-Feb-07 01:05N 40°12' W 009°49'510.0
2016-Feb-07 00:32N 40°07' W 009°48'1110.6
2016-Feb-06 23:33N 39°56' W 009°48'1110.6
2016-Feb-06 22:33N 39°46' W 009°49'1111.0
2016-Feb-06 21:32N 39°34' W 009°49'1110.9
2016-Feb-06 20:33N 39°24' W 009°49'1211.6
2016-Feb-06 19:33N 39°12' W 009°49'1312.9
2016-Feb-06 18:33N 38°59' W 009°50'1413.7
2016-Feb-06 17:33N 38°46' W 009°51'1413.4
2016-Feb-06 16:33N 38°32' W 009°47'1414.0
2016-Feb-06 15:33N 38°19' W 009°43'1414.5
2016-Feb-06 14:33N 38°05' W 009°39'1514.4
2016-Feb-06 13:33N 37°50' W 009°36'1414.2
2016-Feb-06 12:32N 37°36' W 009°32'1615.3
2016-Feb-06 11:30N 37°21' W 009°27'1313.9
2016-Feb-06 10:33N 37°08' W 009°23'1414.2
2016-Feb-06 09:33N 36°54' W 009°19'1414.0
2016-Feb-06 08:33N 36°44' W 009°08'1313.3
2016-Feb-06 07:33N 36°40' W 008°52'1514.7
2016-Feb-06 06:33N 36°36' W 008°34'1414.1
2016-Feb-06 05:33N 36°32' W 008°17'9914.1
2016-Feb-05 22:29N 35°59' W 006°21'1414.8
2016-Feb-05 21:31N 35°57' W 006°04'2814.3
2016-Feb-05 19:33N 35°59' W 005°29'1312.6
2016-Feb-05 18:33N 36°02' W 005°14'20314.2
2016-Feb-05 04:17N 37°06' W 001°14'1114.6
2016-Feb-05 03:33N 37°13' W 001°04'1615.1
2016-Feb-05 02:29N 37°24' W 000°49'1314.6
2016-Feb-05 01:34N 37°33' W 000°36'1414.0
2016-Feb-05 00:33N 37°44' W 000°26'1414.4
2016-Feb-04 23:34N 37°57' W 000°17'8411.4
2016-Feb-04 16:10N 39°21' W 000°11'711.4
2016-Feb-04 15:33N 39°26' W 000°18'1 1.5
2016-Feb-04 14:33N 39°26' W 000°19'0 0.0
2016-Feb-04 13:31N 39°26' W 000°19'0 0.0
2016-Feb-04 12:06N 39°26' W 000°19'0 0.0
2016-Feb-04 11:33N 39°26' W 000°19'0 0.0
2016-Feb-04 10:30N 39°26' W 000°19'0 0.0
2016-Feb-04 09:31N 39°26' W 000°19'0 0.0
2016-Feb-04 08:07N 39°26' W 000°19'0 0.0
2016-Feb-04 07:34N 39°26' W 000°19'0 0.0
2016-Feb-04 06:34N 39°26' W 000°19'0 0.0
2016-Feb-04 05:33N 39°26' W 000°19'0 0.0
2016-Feb-04 04:27N 39°26' W 000°19'0 0.0
2016-Feb-04 03:18N 39°26' W 000°19'0 0.0
2016-Feb-04 02:33N 39°26' W 000°19'0 0.0
2016-Feb-04 01:34N 39°26' W 000°19'0 0.1
2016-Feb-04 00:33N 39°26' W 000°19'5 4.9
2016-Feb-03 23:33N 39°25' W 000°13'7514.1
2016-Feb-03 18:15N 39°14' E 001°22'1013.7
2016-Feb-03 17:31N 39°12' E 001°35'1313.3
2016-Feb-03 16:33N 39°10' E 001°51'1414.0
2016-Feb-03 15:33N 39°06' E 002°09'1413.7
2016-Feb-03 14:33N 39°03' E 002°26'1413.5
2016-Feb-03 13:33N 38°60' E 002°43'1413.8
2016-Feb-03 12:34N 38°56' E 002°60'1414.1
2016-Feb-03 11:33N 38°53' E 003°17'1414.4
2016-Feb-03 10:33N 38°50' E 003°35'48313.4
2016-Feb-01 22:33N 36°47' E 013°26'1312.8
2016-Feb-01 21:34N 36°43' E 013°41'1312.9
2016-Feb-01 20:33N 36°39' E 013°57'1313.1
2016-Feb-01 19:33N 36°35' E 014°12'1313.1
2016-Feb-01 18:33N 36°32' E 014°28'1312.6
2016-Feb-01 17:33N 36°29' E 014°43'  

Dump ship's entire track history